createdAt,value
2019-01-14T00:00:06.535Z,6.30
2019-01-14T00:01:06.473Z,6.28
2019-01-14T00:02:06.461Z,6.27
2019-01-14T00:03:06.455Z,6.25
2019-01-14T00:04:06.442Z,6.27
2019-01-14T00:05:06.430Z,6.24
2019-01-14T00:06:10.278Z,6.25
2019-01-14T00:07:06.410Z,6.24
2019-01-14T00:08:06.397Z,6.21
2019-01-14T00:09:06.385Z,6.27
2019-01-14T00:10:06.518Z,6.30
2019-01-14T00:11:06.365Z,6.32
2019-01-14T00:12:06.357Z,6.28
2019-01-14T00:13:06.345Z,6.25
2019-01-14T00:14:06.331Z,6.21
2019-01-14T00:15:06.321Z,6.25
2019-01-14T00:16:06.353Z,6.27
2019-01-14T00:17:06.301Z,6.14
2019-01-14T00:18:06.295Z,6.28
2019-01-14T00:19:06.285Z,6.17
2019-01-14T00:20:06.268Z,6.06
2019-01-14T00:21:06.259Z,6.14
2019-01-14T00:22:06.258Z,6.10
2019-01-14T00:23:06.244Z,6.11
2019-01-14T00:24:06.225Z,6.08
2019-01-14T00:25:06.222Z,6.13
2019-01-14T00:26:06.209Z,6.13
2019-01-14T00:27:06.202Z,6.11
2019-01-14T00:28:06.187Z,6.10
2019-01-14T00:29:06.174Z,6.05
2019-01-14T00:30:06.160Z,6.03
2019-01-14T00:31:06.152Z,5.95
2019-01-14T00:32:06.153Z,6.03
2019-01-14T00:33:06.126Z,6.01
2019-01-14T00:34:06.124Z,6.03
2019-01-14T00:35:06.104Z,6.03
2019-01-14T00:36:06.095Z,6.05
2019-01-14T00:37:06.093Z,5.98
2019-01-14T00:38:06.080Z,5.90
2019-01-14T00:39:06.069Z,6.02
2019-01-14T00:40:06.054Z,5.98
2019-01-14T00:41:06.039Z,5.95
2019-01-14T00:42:06.034Z,5.90
2019-01-14T00:43:06.027Z,5.93
2019-01-14T00:44:06.015Z,5.93
2019-01-14T00:45:05.996Z,5.88
2019-01-14T00:46:05.991Z,5.93
2019-01-14T00:47:05.975Z,5.88
2019-01-14T00:48:05.973Z,5.81
2019-01-14T00:49:05.964Z,5.78
2019-01-14T00:50:05.956Z,5.74
2019-01-14T00:51:05.932Z,5.74
2019-01-14T00:52:05.920Z,5.81
2019-01-14T00:53:05.929Z,5.73
2019-01-14T00:54:05.905Z,5.70
2019-01-14T00:55:05.895Z,5.67
2019-01-14T00:56:05.878Z,5.69
2019-01-14T00:57:05.876Z,5.74
2019-01-14T00:58:05.856Z,5.67
2019-01-14T00:59:05.845Z,5.67
2019-01-14T01:00:05.850Z,5.75
2019-01-14T01:01:05.866Z,5.67
2019-01-14T01:02:05.818Z,5.75
2019-01-14T01:03:05.802Z,5.66
2019-01-14T01:04:05.800Z,5.67
2019-01-14T01:05:05.787Z,5.66
2019-01-14T01:06:05.778Z,5.67
2019-01-14T01:07:05.787Z,5.77
2019-01-14T01:08:05.750Z,5.70
2019-01-14T01:09:05.740Z,5.73
2019-01-14T01:10:05.734Z,5.74
2019-01-14T01:11:05.727Z,5.66
2019-01-14T01:12:05.707Z,5.78
2019-01-14T01:13:05.707Z,5.67
2019-01-14T01:14:05.691Z,5.70
2019-01-14T01:15:05.675Z,5.73
2019-01-14T01:16:05.665Z,5.69
2019-01-14T01:17:05.662Z,5.70
2019-01-14T01:18:05.695Z,5.78
2019-01-14T01:19:05.637Z,5.70
2019-01-14T01:20:05.622Z,5.67
2019-01-14T01:21:05.616Z,5.69
2019-01-14T01:22:05.611Z,5.81
2019-01-14T01:23:05.592Z,5.66
2019-01-14T01:24:05.598Z,5.65
2019-01-14T01:25:05.573Z,5.58
2019-01-14T01:26:05.573Z,5.65
2019-01-14T01:27:05.546Z,5.56
2019-01-14T01:28:05.550Z,5.55
2019-01-14T01:29:05.533Z,5.49
2019-01-14T01:30:05.524Z,5.49
2019-01-14T01:31:05.507Z,5.52
2019-01-14T01:32:05.511Z,5.45
2019-01-14T01:33:05.487Z,5.45
2019-01-14T01:34:05.484Z,5.38
2019-01-14T01:35:05.462Z,5.42
2019-01-14T01:36:05.456Z,5.42
2019-01-14T01:37:05.446Z,5.42
2019-01-14T01:38:05.428Z,5.42
2019-01-14T01:39:05.426Z,5.35
2019-01-14T01:40:05.409Z,5.38
2019-01-14T01:41:05.434Z,5.37
2019-01-14T01:42:05.388Z,5.38
2019-01-14T01:43:05.380Z,5.37
2019-01-14T01:44:05.371Z,5.42
2019-01-14T01:45:05.359Z,5.35
2019-01-14T01:46:05.352Z,5.47
2019-01-14T01:47:05.343Z,5.33
2019-01-14T01:48:05.329Z,5.41
2019-01-14T01:49:05.312Z,5.35
2019-01-14T01:50:05.307Z,5.38
2019-01-14T01:51:05.334Z,5.38
2019-01-14T01:52:05.290Z,5.38
2019-01-14T01:53:05.276Z,5.40
2019-01-14T01:54:05.261Z,5.37
2019-01-14T01:55:05.249Z,5.29
2019-01-14T01:56:05.238Z,5.41
2019-01-14T01:57:05.260Z,5.40
2019-01-14T01:58:05.226Z,5.30
2019-01-14T01:59:05.211Z,5.37
2019-01-14T02:00:05.199Z,5.30
2019-01-14T02:01:05.190Z,5.29
2019-01-14T02:02:05.196Z,5.29
2019-01-14T02:03:05.168Z,5.33
2019-01-14T02:04:05.156Z,5.24
2019-01-14T02:05:05.146Z,5.24
2019-01-14T02:06:05.133Z,5.22
2019-01-14T02:07:05.121Z,5.32
2019-01-14T02:08:05.141Z,5.30
2019-01-14T02:09:05.104Z,5.29
2019-01-14T02:10:05.092Z,5.29
2019-01-14T02:11:05.077Z,5.26
2019-01-14T02:12:05.072Z,5.37
2019-01-14T02:13:05.063Z,5.29
2019-01-14T02:14:05.066Z,5.26
2019-01-14T02:15:05.043Z,5.30
2019-01-14T02:16:05.037Z,5.29
2019-01-14T02:17:05.015Z,5.26
2019-01-14T02:18:05.049Z,5.26
2019-01-14T02:19:04.998Z,5.27
2019-01-14T02:20:04.988Z,5.32
2019-01-14T02:21:04.982Z,5.30
2019-01-14T02:22:04.966Z,5.26
2019-01-14T02:23:04.950Z,5.24
2019-01-14T02:24:04.954Z,5.26
2019-01-14T02:25:04.934Z,5.24
2019-01-14T02:26:04.919Z,5.26
2019-01-14T02:27:04.915Z,5.27
2019-01-14T02:28:04.902Z,5.29
2019-01-14T02:29:04.925Z,5.32
2019-01-14T02:30:04.881Z,5.30
2019-01-14T02:31:04.865Z,5.33
2019-01-14T02:32:04.872Z,5.23
2019-01-14T02:33:04.845Z,5.17
2019-01-14T02:34:04.834Z,5.24
2019-01-14T02:35:04.836Z,5.29
2019-01-14T02:36:04.825Z,5.19
2019-01-14T02:37:04.800Z,5.26
2019-01-14T02:38:04.798Z,5.20
2019-01-14T02:39:04.789Z,5.24
2019-01-14T02:40:04.777Z,5.27
2019-01-14T02:41:04.787Z,5.17
2019-01-14T02:42:04.753Z,5.30
2019-01-14T02:43:04.744Z,5.26
2019-01-14T02:44:04.736Z,5.30
2019-01-14T02:45:04.720Z,5.14
2019-01-14T02:46:04.725Z,5.33
2019-01-14T02:47:04.707Z,5.33
2019-01-14T02:48:04.697Z,5.17
2019-01-14T02:49:04.675Z,5.23
2019-01-14T02:50:04.669Z,5.22
2019-01-14T02:51:04.653Z,5.26
2019-01-14T02:52:04.693Z,5.23
2019-01-14T02:53:04.638Z,5.33
2019-01-14T02:54:04.624Z,5.22
2019-01-14T02:55:04.611Z,5.32
2019-01-14T02:56:04.607Z,5.30
2019-01-14T02:57:04.590Z,5.32
2019-01-14T02:58:04.586Z,5.30
2019-01-14T02:59:04.574Z,5.22
2019-01-14T03:00:04.567Z,5.30
2019-01-14T03:01:04.551Z,5.22
2019-01-14T03:02:04.541Z,5.17
2019-01-14T03:03:04.539Z,5.27
2019-01-14T03:04:04.513Z,5.22
2019-01-14T03:05:04.512Z,5.27
2019-01-14T03:06:04.499Z,5.20
2019-01-14T03:07:04.488Z,5.20
2019-01-14T03:08:04.512Z,5.23
2019-01-14T03:09:04.467Z,5.17
2019-01-14T03:10:04.468Z,5.22
2019-01-14T03:11:04.445Z,5.17
2019-01-14T03:12:04.434Z,5.24
2019-01-14T03:13:04.421Z,5.19
2019-01-14T03:14:04.449Z,5.14
2019-01-14T03:15:04.401Z,5.23
2019-01-14T03:16:04.386Z,5.20
2019-01-14T03:17:04.385Z,5.15
2019-01-14T03:18:04.370Z,5.22
2019-01-14T03:19:04.356Z,5.12
2019-01-14T03:20:04.359Z,5.08
2019-01-14T03:21:04.337Z,5.15
2019-01-14T03:22:04.328Z,5.12
2019-01-14T03:23:04.313Z,5.14
2019-01-14T03:24:04.310Z,5.08
2019-01-14T03:25:04.321Z,5.11
2019-01-14T03:26:04.293Z,5.11
2019-01-14T03:27:04.270Z,5.14
2019-01-14T03:28:04.318Z,5.12
2019-01-14T03:29:04.272Z,5.12
2019-01-14T03:30:04.243Z,5.14
2019-01-14T03:31:04.228Z,5.12
2019-01-14T03:32:04.236Z,5.15
2019-01-14T03:33:04.212Z,5.04
2019-01-14T03:34:04.201Z,5.17
2019-01-14T03:35:04.222Z,5.11
2019-01-14T03:36:04.180Z,5.06
2019-01-14T03:37:05.650Z,5.04
2019-01-14T03:38:04.159Z,5.08
2019-01-14T03:39:04.142Z,5.05
2019-01-14T03:40:04.132Z,5.04
2019-01-14T03:41:04.135Z,4.97
2019-01-14T03:42:04.116Z,5.06
2019-01-14T03:43:04.099Z,5.06
2019-01-14T03:44:04.096Z,5.09
2019-01-14T03:45:04.078Z,5.08
2019-01-14T03:46:04.081Z,5.06
2019-01-14T03:47:04.069Z,5.04
2019-01-14T03:48:04.051Z,5.08
2019-01-14T03:49:04.036Z,5.06
2019-01-14T03:50:04.024Z,5.01
2019-01-14T03:51:04.018Z,4.99
2019-01-14T03:52:04.030Z,4.94
2019-01-14T03:53:04.006Z,4.97
2019-01-14T03:54:03.984Z,4.99
2019-01-14T03:55:03.979Z,5.06
2019-01-14T03:56:03.960Z,4.99
2019-01-14T03:57:03.963Z,4.90
2019-01-14T03:58:03.944Z,4.97
2019-01-14T03:59:03.939Z,4.83
2019-01-14T04:00:03.918Z,4.88
2019-01-14T04:01:03.921Z,4.87
2019-01-14T04:02:03.902Z,4.88
2019-01-14T04:03:03.907Z,4.87
2019-01-14T04:04:03.883Z,4.84
2019-01-14T04:05:03.866Z,4.90
2019-01-14T04:06:03.858Z,4.83
2019-01-14T04:07:03.856Z,4.88
2019-01-14T04:08:03.841Z,4.80
2019-01-14T04:09:03.820Z,4.87
2019-01-14T04:10:03.816Z,4.79
2019-01-14T04:11:03.798Z,4.79
2019-01-14T04:12:03.794Z,4.87
2019-01-14T04:13:03.790Z,4.80
2019-01-14T04:14:03.774Z,4.75
2019-01-14T04:15:03.765Z,4.80
2019-01-14T04:16:03.752Z,4.79
2019-01-14T04:17:03.736Z,4.79
2019-01-14T04:18:03.724Z,4.77
2019-01-14T04:19:03.729Z,4.68
2019-01-14T04:20:03.703Z,4.67
2019-01-14T04:21:03.697Z,4.65
2019-01-14T04:22:03.682Z,4.68
2019-01-14T04:23:03.708Z,4.68
2019-01-14T04:24:04.808Z,4.62
2019-01-14T04:25:03.649Z,4.64
2019-01-14T04:26:03.644Z,4.67
2019-01-14T04:27:03.629Z,4.64
2019-01-14T04:28:03.621Z,4.54
2019-01-14T04:29:03.620Z,4.57
2019-01-14T04:30:03.609Z,4.53
2019-01-14T04:31:03.586Z,4.51
2019-01-14T04:32:03.578Z,4.50
2019-01-14T04:33:03.589Z,4.75
2019-01-14T04:34:03.568Z,4.74
2019-01-14T04:35:03.546Z,4.80
2019-01-14T04:36:03.529Z,4.80
2019-01-14T04:37:03.525Z,4.87
2019-01-14T04:38:03.515Z,4.74
2019-01-14T04:39:03.546Z,4.72
2019-01-14T04:40:03.533Z,4.62
2019-01-14T04:41:03.477Z,4.56
2019-01-14T04:42:03.471Z,4.47
2019-01-14T04:43:03.455Z,4.35
2019-01-14T04:44:03.444Z,4.25
2019-01-14T04:45:03.440Z,4.20
2019-01-14T04:46:03.432Z,4.17
2019-01-14T04:47:03.417Z,4.24
2019-01-14T04:48:03.402Z,4.14
2019-01-14T04:49:03.397Z,4.14
2019-01-14T04:50:03.390Z,4.10
2019-01-14T04:51:03.447Z,4.18
2019-01-14T04:52:03.366Z,4.10
2019-01-14T04:53:03.348Z,4.07
2019-01-14T04:54:03.343Z,4.06
2019-01-14T04:55:03.335Z,4.06
2019-01-14T04:56:03.355Z,3.98
2019-01-14T04:57:03.315Z,3.98
2019-01-14T04:58:03.300Z,3.89
2019-01-14T04:59:03.286Z,3.90
2019-01-14T05:00:03.273Z,3.88
2019-01-14T05:01:03.268Z,3.89
2019-01-14T05:02:03.265Z,3.81
2019-01-14T05:03:03.247Z,3.89
2019-01-14T05:04:03.238Z,3.82
2019-01-14T05:05:03.221Z,3.75
2019-01-14T05:06:03.217Z,3.81
2019-01-14T05:07:03.207Z,3.74
2019-01-14T05:08:03.193Z,3.78
2019-01-14T05:09:03.177Z,3.67
2019-01-14T05:10:03.168Z,3.70
2019-01-14T05:11:03.163Z,3.70
2019-01-14T05:12:03.165Z,3.71
2019-01-14T05:13:03.139Z,3.64
2019-01-14T05:14:03.129Z,3.70
2019-01-14T05:15:03.120Z,3.70
2019-01-14T05:16:03.107Z,3.68
2019-01-14T05:17:03.098Z,3.70
2019-01-14T05:18:03.113Z,3.62
2019-01-14T05:19:03.077Z,3.68
2019-01-14T05:20:03.063Z,3.67
2019-01-14T05:21:03.051Z,3.63
2019-01-14T05:22:03.044Z,3.70
2019-01-14T05:23:03.031Z,3.68
2019-01-14T05:24:03.040Z,3.82
2019-01-14T05:25:03.005Z,3.95
2019-01-14T05:26:03.003Z,3.95
2019-01-14T05:27:03.043Z,3.81
2019-01-14T05:28:02.979Z,3.88
2019-01-14T05:29:02.973Z,3.84
2019-01-14T05:30:02.962Z,3.84
2019-01-14T05:31:02.949Z,3.75
2019-01-14T05:32:02.935Z,3.81
2019-01-14T05:33:02.919Z,3.81
2019-01-14T05:34:02.962Z,3.81
2019-01-14T05:35:02.933Z,3.75
2019-01-14T05:36:02.893Z,3.77
2019-01-14T05:37:02.880Z,3.78
2019-01-14T05:38:11.627Z,3.72
2019-01-14T05:39:02.854Z,3.72
2019-01-14T05:40:02.873Z,3.75
2019-01-14T05:41:02.837Z,3.74
2019-01-14T05:42:02.836Z,3.74
2019-01-14T05:43:02.816Z,3.75
2019-01-14T05:44:02.807Z,3.84
2019-01-14T05:45:02.809Z,3.80
2019-01-14T05:46:02.788Z,3.86
2019-01-14T05:47:02.768Z,3.74
2019-01-14T05:48:02.777Z,3.78
2019-01-14T05:49:02.752Z,3.82
2019-01-14T05:50:02.752Z,3.81
2019-01-14T05:51:02.736Z,3.86
2019-01-14T05:52:02.723Z,3.80
2019-01-14T05:53:02.709Z,3.80
2019-01-14T05:54:02.706Z,3.81
2019-01-14T05:55:02.683Z,3.81
2019-01-14T05:56:02.676Z,3.81
2019-01-14T05:57:02.673Z,3.81
2019-01-14T05:58:02.667Z,3.88
2019-01-14T05:59:02.641Z,3.84
2019-01-14T06:00:02.642Z,3.72
2019-01-14T06:01:02.748Z,3.86
2019-01-14T06:02:02.610Z,3.93
2019-01-14T06:03:02.614Z,4.06
2019-01-14T06:04:02.587Z,4.02
2019-01-14T06:05:02.592Z,3.99
2019-01-14T06:06:02.575Z,3.93
2019-01-14T06:07:02.572Z,3.90
2019-01-14T06:08:02.551Z,3.89
2019-01-14T06:09:02.536Z,3.78
2019-01-14T06:10:02.525Z,3.86
2019-01-14T06:11:02.517Z,3.82
2019-01-14T06:12:02.551Z,3.77
2019-01-14T06:13:02.498Z,3.75
2019-01-14T06:14:02.490Z,3.80
2019-01-14T06:15:02.479Z,3.71
2019-01-14T06:16:02.468Z,3.64
2019-01-14T06:17:02.454Z,3.71
2019-01-14T06:18:02.455Z,3.62
2019-01-14T06:19:02.434Z,3.63
2019-01-14T06:20:02.434Z,3.62
2019-01-14T06:21:02.406Z,3.60
2019-01-14T06:22:02.401Z,3.60
2019-01-14T06:23:02.397Z,3.54
2019-01-14T06:24:02.381Z,3.34
2019-01-14T06:25:02.372Z,3.49
2019-01-14T06:26:02.366Z,3.54
2019-01-14T06:27:02.347Z,3.45
2019-01-14T06:28:02.336Z,3.45
2019-01-14T06:29:02.357Z,3.44
2019-01-14T06:30:02.319Z,3.37
2019-01-14T06:31:02.308Z,3.41
2019-01-14T06:32:02.288Z,3.41
2019-01-14T06:33:02.283Z,3.41
2019-01-14T06:34:02.276Z,3.39
2019-01-14T06:35:02.271Z,3.35
2019-01-14T06:36:02.269Z,3.39
2019-01-14T06:37:02.247Z,3.39
2019-01-14T06:38:02.231Z,3.37
2019-01-14T06:39:02.215Z,3.39
2019-01-14T06:40:02.206Z,3.33
2019-01-14T06:41:02.199Z,3.44
2019-01-14T06:42:02.201Z,3.37
2019-01-14T06:43:02.178Z,3.44
2019-01-14T06:44:02.167Z,3.39
2019-01-14T06:45:02.216Z,3.30
2019-01-14T06:46:02.146Z,3.30
2019-01-14T06:47:02.149Z,3.37
2019-01-14T06:48:02.148Z,3.31
2019-01-14T06:49:02.113Z,3.25
2019-01-14T06:50:02.099Z,3.26
2019-01-14T06:51:02.090Z,3.26
2019-01-14T06:52:02.080Z,3.30
2019-01-14T06:53:02.080Z,3.30
2019-01-14T06:54:02.055Z,3.26
2019-01-14T06:55:02.048Z,3.44
2019-01-14T06:56:02.040Z,3.42
2019-01-14T06:57:02.027Z,3.34
2019-01-14T06:58:02.024Z,3.37
2019-01-14T06:59:02.011Z,3.41
2019-01-14T07:00:01.997Z,3.44
2019-01-14T07:01:01.981Z,3.22
2019-01-14T07:02:01.972Z,3.17
2019-01-14T07:03:01.996Z,3.13
2019-01-14T07:04:01.951Z,2.98
2019-01-14T07:05:01.937Z,3.04
2019-01-14T07:06:01.931Z,2.87
2019-01-14T07:07:01.915Z,2.94
2019-01-14T07:08:01.908Z,2.86
2019-01-14T07:09:01.912Z,2.68
2019-01-14T07:10:01.902Z,2.68
2019-01-14T07:11:01.875Z,2.62
2019-01-14T07:12:02.629Z,2.63
2019-01-14T07:13:01.866Z,2.55
2019-01-14T07:14:01.852Z,2.45
2019-01-14T07:15:01.833Z,2.47
2019-01-14T07:16:01.831Z,2.41
2019-01-14T07:17:01.809Z,2.47
2019-01-14T07:18:01.794Z,2.47
2019-01-14T07:19:01.799Z,2.43
2019-01-14T07:20:01.786Z,2.41
2019-01-14T07:21:01.778Z,2.38
2019-01-14T07:22:01.752Z,2.38
2019-01-14T07:23:01.754Z,2.41
2019-01-14T07:24:01.736Z,2.43
2019-01-14T07:25:01.771Z,2.47
2019-01-14T07:26:01.709Z,2.48
2019-01-14T07:27:01.706Z,2.56
2019-01-14T07:28:01.695Z,2.61
2019-01-14T07:29:01.696Z,2.55
2019-01-14T07:30:01.666Z,2.69
2019-01-14T07:31:01.673Z,2.69
2019-01-14T07:32:01.654Z,2.66
2019-01-14T07:33:01.647Z,2.77
2019-01-14T07:34:01.631Z,2.89
2019-01-14T07:35:02.296Z,2.81
2019-01-14T07:36:01.631Z,2.81
2019-01-14T07:37:01.591Z,2.92
2019-01-14T07:38:06.699Z,2.95
2019-01-14T07:39:02.579Z,2.95
2019-01-14T07:40:01.560Z,2.98
2019-01-14T07:41:01.582Z,2.95
2019-01-14T07:42:01.542Z,2.95
2019-01-14T07:43:01.526Z,2.92
2019-01-14T07:44:01.516Z,2.94
2019-01-14T07:45:01.509Z,2.86
2019-01-14T07:46:01.499Z,3.02
2019-01-14T07:47:01.492Z,2.92
2019-01-14T07:48:01.477Z,2.99
2019-01-14T07:49:01.469Z,2.99
2019-01-14T07:50:01.453Z,3.02
2019-01-14T07:51:01.441Z,2.97
2019-01-14T07:52:01.446Z,2.98
2019-01-14T07:53:01.419Z,2.99
2019-01-14T07:54:01.409Z,2.99
2019-01-14T07:55:01.399Z,3.07
2019-01-14T07:56:01.387Z,3.04
2019-01-14T07:57:01.433Z,3.12
2019-01-14T07:58:01.372Z,3.08
2019-01-14T07:59:01.361Z,3.07
2019-01-14T08:00:01.348Z,3.05
2019-01-14T08:01:01.334Z,3.13
2019-01-14T08:02:01.327Z,3.10
2019-01-14T08:03:01.319Z,3.13
2019-01-14T08:04:01.302Z,3.05
2019-01-14T08:05:01.296Z,3.12
2019-01-14T08:06:01.291Z,3.07
2019-01-14T08:07:01.271Z,3.10
2019-01-14T08:08:01.297Z,3.10
2019-01-14T08:09:01.252Z,3.12
2019-01-14T08:10:01.243Z,3.08
2019-01-14T08:11:01.230Z,3.16
2019-01-14T08:12:01.214Z,3.19
2019-01-14T08:13:01.204Z,3.15
2019-01-14T08:14:01.232Z,3.10
2019-01-14T08:15:01.193Z,3.17
2019-01-14T08:16:01.181Z,3.08
2019-01-14T08:17:01.167Z,3.23
2019-01-14T08:18:01.159Z,3.22
2019-01-14T08:19:01.142Z,3.30
2019-01-14T08:20:01.169Z,3.30
2019-01-14T08:21:01.119Z,3.41
2019-01-14T08:22:01.118Z,3.34
2019-01-14T08:23:01.100Z,3.39
2019-01-14T08:24:01.086Z,3.34
2019-01-14T08:25:01.081Z,3.34
2019-01-14T08:26:01.078Z,3.35
2019-01-14T08:27:01.057Z,3.33
2019-01-14T08:28:01.045Z,3.35
2019-01-14T08:29:01.038Z,3.25
2019-01-14T08:30:01.034Z,3.39
2019-01-14T08:31:01.022Z,3.35
2019-01-14T08:32:01.007Z,3.33
2019-01-14T08:33:00.993Z,3.42
2019-01-14T08:34:00.991Z,3.46
2019-01-14T08:35:00.983Z,3.50
2019-01-14T08:36:01.022Z,3.63
2019-01-14T08:37:01.028Z,3.54
2019-01-14T08:38:00.945Z,3.62
2019-01-14T08:39:00.927Z,3.68
2019-01-14T08:40:00.921Z,3.64
2019-01-14T08:41:00.906Z,3.59
2019-01-14T08:42:00.913Z,3.57
2019-01-14T08:43:00.888Z,3.56
2019-01-14T08:44:00.880Z,3.64
2019-01-14T08:45:00.867Z,3.64
2019-01-14T08:46:00.853Z,3.68
2019-01-14T08:47:00.862Z,3.70
2019-01-14T08:48:00.838Z,3.68
2019-01-14T08:49:00.820Z,3.74
2019-01-14T08:50:00.810Z,3.74
2019-01-14T08:51:00.803Z,3.75
2019-01-14T08:52:00.791Z,3.81
2019-01-14T08:53:00.787Z,3.82
2019-01-14T08:54:00.781Z,3.90
2019-01-14T08:55:00.757Z,3.98
2019-01-14T08:56:00.752Z,3.99
2019-01-14T08:57:00.753Z,3.86
2019-01-14T08:58:00.732Z,3.70
2019-01-14T08:59:00.727Z,3.68
2019-01-14T09:00:00.708Z,3.67
2019-01-14T09:01:00.700Z,3.74
2019-01-14T09:02:00.688Z,3.84
2019-01-14T09:03:00.681Z,3.86
2019-01-14T09:04:00.666Z,3.89
2019-01-14T09:05:00.650Z,3.86
2019-01-14T09:06:00.643Z,3.98
2019-01-14T09:07:00.628Z,4.08
2019-01-14T09:08:00.633Z,4.18
2019-01-14T09:09:00.611Z,4.25
2019-01-14T09:10:00.599Z,4.17
2019-01-14T09:11:00.585Z,4.29
2019-01-14T09:12:00.582Z,4.14
2019-01-14T09:13:00.604Z,4.17
2019-01-14T09:14:00.559Z,4.24
2019-01-14T09:15:00.551Z,4.24
2019-01-14T09:16:00.534Z,4.21
2019-01-14T09:17:00.524Z,4.24
2019-01-14T09:18:02.826Z,4.16
2019-01-14T09:19:00.507Z,4.10
2019-01-14T09:20:00.496Z,4.14
2019-01-14T09:21:00.484Z,4.16
2019-01-14T09:22:00.468Z,4.36
2019-01-14T09:23:00.469Z,4.38
2019-01-14T09:24:00.458Z,4.46
2019-01-14T09:25:00.523Z,4.62
2019-01-14T09:26:00.429Z,4.75
2019-01-14T09:27:00.425Z,4.80
2019-01-14T09:28:00.408Z,4.88
2019-01-14T09:29:00.440Z,4.96
2019-01-14T09:30:00.421Z,4.99
2019-01-14T09:31:00.377Z,4.99
2019-01-14T09:32:00.372Z,5.06
2019-01-14T09:33:00.353Z,5.15
2019-01-14T09:34:00.340Z,5.11
2019-01-14T09:35:00.336Z,5.09
2019-01-14T09:36:00.321Z,5.05
2019-01-14T09:37:00.310Z,5.02
2019-01-14T09:38:00.302Z,5.12
2019-01-14T09:39:00.322Z,5.14
2019-01-14T09:40:00.275Z,5.12
2019-01-14T09:41:00.262Z,5.02
2019-01-14T09:42:00.256Z,5.11
2019-01-14T09:43:00.248Z,5.14
2019-01-14T09:44:00.237Z,5.01
2019-01-14T09:45:00.228Z,5.06
2019-01-14T09:46:00.244Z,5.15
2019-01-14T09:47:00.206Z,5.35
2019-01-14T09:48:00.202Z,5.35
2019-01-14T09:49:00.180Z,5.60
2019-01-14T09:50:00.248Z,5.51
2019-01-14T09:51:00.162Z,5.55
2019-01-14T09:52:00.157Z,5.47
2019-01-14T09:53:00.133Z,5.40
2019-01-14T09:54:00.122Z,5.38
2019-01-14T09:55:00.213Z,5.38
2019-01-14T09:56:01.097Z,5.42
2019-01-14T09:57:00.136Z,5.73
2019-01-14T09:58:00.083Z,5.88
2019-01-14T09:59:00.068Z,5.80
2019-01-14T10:00:00.158Z,5.90
2019-01-14T10:01:00.055Z,5.77
2019-01-14T10:02:00.053Z,5.52
2019-01-14T10:03:00.033Z,5.51
2019-01-14T10:04:00.012Z,5.52
2019-01-14T10:05:00.005Z,5.77
2019-01-14T10:06:00.017Z,5.85
2019-01-14T10:06:59.992Z,5.92
2019-01-14T10:07:59.986Z,6.02
2019-01-14T10:08:59.964Z,5.95
2019-01-14T10:09:59.954Z,5.88
2019-01-14T10:10:59.968Z,5.73
2019-01-14T10:11:59.932Z,5.58
2019-01-14T10:12:59.919Z,5.65
2019-01-14T10:13:59.910Z,5.70
2019-01-14T10:14:59.935Z,5.78
2019-01-14T10:15:59.883Z,5.70
2019-01-14T10:16:59.882Z,5.70
2019-01-14T10:17:59.864Z,5.49
2019-01-14T10:18:59.900Z,5.55
2019-01-14T10:19:59.846Z,5.45
2019-01-14T10:20:59.829Z,5.66
2019-01-14T10:21:59.828Z,5.65
2019-01-14T10:22:59.818Z,5.42
2019-01-14T10:23:59.801Z,5.67
2019-01-14T10:24:59.810Z,5.75
2019-01-14T10:25:59.779Z,5.74
2019-01-14T10:26:59.769Z,5.63
2019-01-14T10:27:59.760Z,5.51
2019-01-14T10:28:59.750Z,5.37
2019-01-14T10:29:59.737Z,5.41
2019-01-14T10:30:59.743Z,5.35
2019-01-14T10:31:59.715Z,5.48
2019-01-14T10:32:59.704Z,5.40
2019-01-14T10:33:59.704Z,5.55
2019-01-14T10:34:59.683Z,5.44
2019-01-14T10:35:59.671Z,5.44
2019-01-14T10:36:59.667Z,5.60
2019-01-14T10:37:59.648Z,5.78
2019-01-14T10:38:59.649Z,5.75
2019-01-14T10:39:59.630Z,5.74
2019-01-14T10:40:59.617Z,5.90
2019-01-14T10:41:59.611Z,5.96
2019-01-14T10:42:59.606Z,5.78
2019-01-14T10:43:59.580Z,5.73
2019-01-14T10:44:59.592Z,5.56
2019-01-14T10:45:59.577Z,5.58
2019-01-14T10:46:59.561Z,5.58
2019-01-14T10:47:59.537Z,5.70
2019-01-14T10:48:59.532Z,5.69
2019-01-14T10:49:59.515Z,6.01
2019-01-14T10:50:59.504Z,6.11
2019-01-14T10:51:59.526Z,5.95
2019-01-14T10:52:59.491Z,5.73
2019-01-14T10:53:59.476Z,5.59
2019-01-14T10:54:59.483Z,5.49
2019-01-14T10:55:59.505Z,5.37
2019-01-14T10:56:59.439Z,5.30
2019-01-14T10:57:59.427Z,5.26
2019-01-14T10:58:59.423Z,5.29
2019-01-14T10:59:59.413Z,5.26
2019-01-14T11:00:59.413Z,5.30
2019-01-14T11:01:59.398Z,5.29
2019-01-14T11:02:59.380Z,5.40
2019-01-14T11:03:59.367Z,5.33
2019-01-14T11:04:59.361Z,5.30
2019-01-14T11:05:59.347Z,5.23
2019-01-14T11:06:59.355Z,5.33
2019-01-14T11:07:59.323Z,5.26
2019-01-14T11:09:05.641Z,5.32
2019-01-14T11:10:00.302Z,5.24
2019-01-14T11:10:59.295Z,5.27
2019-01-14T11:11:59.330Z,5.27
2019-01-14T11:12:59.266Z,5.23
2019-01-14T11:13:59.266Z,5.20
2019-01-14T11:15:02.868Z,5.15
2019-01-14T11:15:59.237Z,5.08
2019-01-14T11:16:59.222Z,5.11
2019-01-14T11:17:59.226Z,5.12
2019-01-14T11:18:59.206Z,5.02
2019-01-14T11:19:59.193Z,4.91
2019-01-14T11:20:59.188Z,4.80
2019-01-14T11:21:59.169Z,4.61
2019-01-14T11:22:59.175Z,4.71
2019-01-14T11:23:59.160Z,4.68
2019-01-14T11:24:59.136Z,4.69
2019-01-14T11:25:59.125Z,4.69
2019-01-14T11:26:59.116Z,5.02
2019-01-14T11:27:59.122Z,5.11
2019-01-14T11:28:59.160Z,5.20
2019-01-14T11:29:59.087Z,5.38
2019-01-14T11:30:59.120Z,5.47
2019-01-14T11:31:59.062Z,5.24
2019-01-14T11:32:59.064Z,5.27
2019-01-14T11:33:59.043Z,5.12
2019-01-14T11:34:59.044Z,5.04
2019-01-14T11:35:59.019Z,4.97
2019-01-14T11:36:59.010Z,4.91
2019-01-14T11:37:59.027Z,4.86
2019-01-14T11:39:06.665Z,4.91
2019-01-14T11:39:58.989Z,4.91
2019-01-14T11:40:58.965Z,4.97
2019-01-14T11:41:58.972Z,5.11
2019-01-14T11:42:58.946Z,5.19
2019-01-14T11:43:58.934Z,5.33
2019-01-14T11:44:58.922Z,5.27
2019-01-14T11:45:58.923Z,5.22
2019-01-14T11:46:58.898Z,5.29
2019-01-14T11:47:58.892Z,5.23
2019-01-14T11:48:58.889Z,5.14
2019-01-14T11:49:58.866Z,5.15
2019-01-14T11:50:58.925Z,5.11
2019-01-14T11:51:58.854Z,4.97
2019-01-14T11:52:58.837Z,4.88
2019-01-14T11:53:58.826Z,4.87
2019-01-14T11:54:58.811Z,4.90
2019-01-14T11:55:58.816Z,4.93
2019-01-14T11:56:58.790Z,4.84
2019-01-14T11:57:58.785Z,4.69
2019-01-14T11:58:58.776Z,4.61
2019-01-14T11:59:58.757Z,4.53
2019-01-14T12:00:58.756Z,4.53
2019-01-14T12:01:58.734Z,4.51
2019-01-14T12:02:58.734Z,4.46
2019-01-14T12:03:58.718Z,4.38
2019-01-14T12:04:58.711Z,4.47
2019-01-14T12:05:58.693Z,4.36
2019-01-14T12:06:58.730Z,4.34
2019-01-14T12:07:58.671Z,4.32
2019-01-14T12:08:58.664Z,4.26
2019-01-14T12:09:58.653Z,4.24
2019-01-14T12:10:58.641Z,4.24
2019-01-14T12:11:58.633Z,4.28
2019-01-14T12:12:58.631Z,4.14
2019-01-14T12:13:58.607Z,4.17
2019-01-14T12:14:58.597Z,4.21
2019-01-14T12:15:58.585Z,4.29
2019-01-14T12:16:58.629Z,4.32
2019-01-14T12:17:58.564Z,4.29
2019-01-14T12:18:58.558Z,4.08
2019-01-14T12:19:58.547Z,4.14
2019-01-14T12:20:58.537Z,4.18
2019-01-14T12:21:58.521Z,4.08
2019-01-14T12:22:58.542Z,4.28
2019-01-14T12:23:58.505Z,4.25
2019-01-14T12:24:58.494Z,4.32
2019-01-14T12:25:58.524Z,4.28
2019-01-14T12:26:58.468Z,4.42
2019-01-14T12:27:58.458Z,4.32
2019-01-14T12:28:58.449Z,4.38
2019-01-14T12:29:58.441Z,4.36
2019-01-14T12:30:58.428Z,4.38
2019-01-14T12:31:58.424Z,4.43
2019-01-14T12:32:58.404Z,4.46
2019-01-14T12:33:58.407Z,4.47
2019-01-14T12:34:58.398Z,4.51
2019-01-14T12:35:58.496Z,4.43
2019-01-14T12:36:58.363Z,4.50
2019-01-14T12:37:58.354Z,4.43
2019-01-14T12:38:58.345Z,4.38
2019-01-14T12:39:58.333Z,4.34
2019-01-14T12:40:58.324Z,4.28
2019-01-14T12:41:58.321Z,4.28
2019-01-14T12:42:58.315Z,4.20
2019-01-14T12:43:58.295Z,4.24
2019-01-14T12:44:58.282Z,4.25
2019-01-14T12:45:58.286Z,4.17
2019-01-14T12:46:58.272Z,4.20
2019-01-14T12:47:58.252Z,4.24
2019-01-14T12:48:58.238Z,4.21
2019-01-14T12:49:58.240Z,4.28
2019-01-14T12:50:58.215Z,4.16
2019-01-14T12:51:58.210Z,4.08
2019-01-14T12:52:58.193Z,4.02
2019-01-14T12:53:58.185Z,4.00
2019-01-14T12:54:58.176Z,4.04
2019-01-14T12:55:58.183Z,4.00
2019-01-14T12:56:58.179Z,4.10
2019-01-14T12:57:58.138Z,4.14
2019-01-14T12:58:58.132Z,4.08
2019-01-14T12:59:58.121Z,3.98
2019-01-14T13:00:58.104Z,3.96
2019-01-14T13:01:58.111Z,4.02
2019-01-14T13:02:58.741Z,4.11
2019-01-14T13:03:58.074Z,3.96
2019-01-14T13:04:58.063Z,4.00
2019-01-14T13:05:58.051Z,4.00
2019-01-14T13:06:58.068Z,4.13
2019-01-14T13:07:58.029Z,4.14
2019-01-14T13:08:58.030Z,4.11
2019-01-14T13:09:58.011Z,4.08
2019-01-14T13:10:58.003Z,4.00
2019-01-14T13:11:57.993Z,3.99
2019-01-14T13:12:57.991Z,4.04
2019-01-14T13:13:57.970Z,3.96
2019-01-14T13:14:57.958Z,3.92
2019-01-14T13:15:57.947Z,3.86
2019-01-14T13:16:57.939Z,3.82
2019-01-14T13:17:57.933Z,3.71